createdAt,value
2018-06-14T00:02:25.979Z,56.00
2018-06-14T00:04:57.651Z,43.50
2018-06-14T00:07:29.687Z,40.73
2018-06-14T00:10:01.438Z,47.10
2018-06-14T00:12:33.749Z,37.77
2018-06-14T00:15:05.384Z,35.23
2018-06-14T00:17:37.696Z,47.40
2018-06-14T00:20:10.043Z,44.97
2018-06-14T00:22:41.737Z,44.87
2018-06-14T00:25:13.146Z,51.33
2018-06-14T00:27:45.242Z,51.73
2018-06-14T00:30:17.138Z,52.07
2018-06-14T00:32:48.700Z,49.23
2018-06-14T00:35:20.619Z,48.00
2018-06-14T00:37:53.360Z,43.37
2018-06-14T00:40:24.805Z,41.83
2018-06-14T00:42:56.799Z,48.87
2018-06-14T00:45:28.439Z,50.60
2018-06-14T00:48:00.321Z,47.67
2018-06-14T00:50:32.181Z,37.50
2018-06-14T00:53:04.370Z,55.73
2018-06-14T00:55:35.855Z,46.00
2018-06-14T00:58:07.513Z,53.03
2018-06-14T01:00:38.230Z,49.17
2018-06-14T01:03:09.258Z,42.00
2018-06-14T01:05:41.001Z,44.13
2018-06-14T01:08:12.820Z,36.13
2018-06-14T01:10:44.680Z,39.73
2018-06-14T01:13:16.785Z,41.80
2018-06-14T01:15:48.602Z,42.80
2018-06-14T01:18:20.959Z,49.27
2018-06-14T01:20:53.089Z,53.30
2018-06-14T01:23:24.891Z,44.80
2018-06-14T01:25:56.601Z,50.33
2018-06-14T01:28:28.559Z,60.70
2018-06-14T01:31:00.167Z,45.37
2018-06-14T01:33:31.926Z,48.57
2018-06-14T01:36:03.534Z,41.63
2018-06-14T01:38:37.472Z,45.67
2018-06-14T01:41:09.018Z,40.80
2018-06-14T01:43:41.140Z,49.60
2018-06-14T01:46:12.913Z,46.40
2018-06-14T01:48:44.799Z,51.70
2018-06-14T01:51:16.196Z,49.47
2018-06-14T01:53:48.077Z,51.93
2018-06-14T01:56:19.684Z,49.30
2018-06-14T01:58:50.930Z,43.23
2018-06-14T02:01:22.447Z,50.77
2018-06-14T02:03:54.452Z,49.57
2018-06-14T02:06:26.243Z,53.83
2018-06-14T02:08:57.785Z,65.83
2018-06-14T02:11:29.833Z,77.53
2018-06-14T02:14:01.987Z,52.17
2018-06-14T02:16:33.750Z,52.10
2018-06-14T02:19:05.836Z,55.80
2018-06-14T02:21:37.321Z,63.47
2018-06-14T02:24:09.141Z,68.40
2018-06-14T02:26:40.769Z,60.53
2018-06-14T02:29:12.553Z,64.60
2018-06-14T02:31:44.363Z,62.10
2018-06-14T02:34:16.144Z,58.93
2018-06-14T02:36:55.828Z,69.50
2018-06-14T02:39:29.151Z,65.87
2018-06-14T02:42:00.833Z,83.23
2018-06-14T02:44:33.062Z,78.13
2018-06-14T02:47:04.749Z,61.43
2018-06-14T02:49:36.387Z,66.80
2018-06-14T02:52:08.214Z,73.77
2018-06-14T02:54:40.188Z,73.43
2018-06-14T02:57:11.879Z,67.23
2018-06-14T02:59:43.570Z,53.43
2018-06-14T03:02:15.261Z,60.07
2018-06-14T03:04:46.935Z,43.03
2018-06-14T03:07:48.783Z,59.53
2018-06-14T03:10:20.956Z,65.53
2018-06-14T03:12:52.928Z,56.13
2018-06-14T03:15:26.340Z,54.77
2018-06-14T03:17:57.351Z,59.63
2018-06-14T03:20:30.017Z,44.43
2018-06-14T03:23:02.052Z,49.60
2018-06-14T03:25:33.305Z,57.97
2018-06-14T03:28:05.089Z,41.40
2018-06-14T03:30:36.868Z,67.03
2018-06-14T03:33:08.667Z,49.73
2018-06-14T03:35:40.556Z,56.77
2018-06-14T03:38:12.240Z,57.47
2018-06-14T03:40:45.958Z,48.73
2018-06-14T03:43:16.872Z,57.63
2018-06-14T03:45:48.113Z,52.50
2018-06-14T03:48:19.390Z,59.37
2018-06-14T03:50:51.188Z,41.20
2018-06-14T03:53:22.956Z,66.53
2018-06-14T03:55:54.899Z,65.77
2018-06-14T03:58:25.789Z,64.73
2018-06-14T04:00:57.793Z,68.43
2018-06-14T04:03:28.433Z,66.17
2018-06-14T04:05:59.534Z,63.73
2018-06-14T04:08:30.971Z,55.03
2018-06-14T04:11:02.834Z,59.67
2018-06-14T04:13:34.240Z,70.17
2018-06-14T04:16:06.247Z,64.83
2018-06-14T04:18:38.139Z,37.87
2018-06-14T04:21:09.073Z,50.57
2018-06-14T04:23:40.734Z,52.57
2018-06-14T04:26:12.583Z,43.77
2018-06-14T04:28:44.254Z,57.20
2018-06-14T04:31:15.858Z,55.30
2018-06-14T04:33:47.524Z,56.07
2018-06-14T04:36:19.384Z,59.63
2018-06-14T04:38:51.191Z,56.80
2018-06-14T04:41:24.049Z,61.80
2018-06-14T04:43:55.792Z,69.40
2018-06-14T04:46:27.559Z,54.50
2018-06-14T04:48:59.150Z,60.00
2018-06-14T04:51:30.070Z,54.87
2018-06-14T04:54:01.750Z,49.30
2018-06-14T04:56:33.845Z,53.60
2018-06-14T04:59:05.581Z,65.57
2018-06-14T05:01:37.813Z,60.07
2018-06-14T05:04:09.712Z,74.80
2018-06-14T05:06:41.651Z,49.73
2018-06-14T05:09:15.067Z,62.83
2018-06-14T05:11:47.526Z,69.30
2018-06-14T05:14:19.777Z,70.87
2018-06-14T05:16:52.268Z,66.00
2018-06-14T05:19:24.242Z,54.50
2018-06-14T05:21:56.433Z,59.48
2018-06-14T05:24:28.366Z,55.78
2018-06-14T05:27:00.440Z,58.98
2018-06-14T05:29:31.288Z,40.17
2018-06-14T05:32:03.025Z,37.93
2018-06-14T05:34:34.699Z,40.23
2018-06-14T05:37:06.832Z,40.33
2018-06-14T05:39:38.632Z,28.60
2018-06-14T05:42:11.846Z,27.95
2018-06-14T05:44:43.473Z,28.17
2018-06-14T05:47:14.624Z,33.23
2018-06-14T05:49:46.564Z,29.42
2018-06-14T05:52:18.555Z,27.85
2018-06-14T05:54:50.276Z,32.98
2018-06-14T05:57:22.601Z,29.30
2018-06-14T05:59:54.408Z,36.25
2018-06-14T06:02:26.669Z,27.87
2018-06-14T06:04:58.601Z,25.32
2018-06-14T06:07:29.875Z,31.77
2018-06-14T06:10:00.720Z,36.35
2018-06-14T06:12:32.754Z,29.90
2018-06-14T06:15:04.762Z,28.30
2018-06-14T06:17:36.911Z,34.98
2018-06-14T06:20:14.976Z,40.00
2018-06-14T06:22:47.440Z,38.30
2018-06-14T06:25:18.903Z,41.70
2018-06-14T06:27:50.798Z,34.63
2018-06-14T06:30:22.502Z,36.30
2018-06-14T06:32:54.534Z,31.00
2018-06-14T06:35:26.191Z,32.80
2018-06-14T06:37:58.189Z,26.93
2018-06-14T06:40:29.821Z,39.75
2018-06-14T06:43:03.773Z,29.15
2018-06-14T06:45:35.590Z,35.83
2018-06-14T06:48:07.240Z,35.33
2018-06-14T06:50:38.630Z,24.37
2018-06-14T06:53:10.975Z,25.65
2018-06-14T06:55:42.770Z,26.45
2018-06-14T06:58:16.226Z,24.43
2018-06-14T07:00:47.889Z,24.23
2018-06-14T07:03:19.735Z,28.27
2018-06-14T07:05:50.705Z,25.95
2018-06-14T07:08:22.745Z,29.65
2018-06-14T07:10:54.366Z,25.08
2018-06-14T07:13:26.264Z,32.95
2018-06-14T07:15:57.917Z,34.00
2018-06-14T07:18:29.715Z,30.40
2018-06-14T07:21:01.205Z,26.33
2018-06-14T07:23:32.834Z,32.03
2018-06-14T07:26:04.338Z,28.13
2018-06-14T07:28:36.148Z,28.13
2018-06-14T07:31:07.654Z,28.33
2018-06-14T07:33:39.832Z,31.70
2018-06-14T07:36:11.331Z,23.27
2018-06-14T07:38:43.435Z,27.80
2018-06-14T07:41:14.106Z,28.90
2018-06-14T07:43:47.201Z,23.63
2018-06-14T07:46:18.631Z,25.80
2018-06-14T07:48:50.477Z,25.43
2018-06-14T07:51:22.214Z,33.73
2018-06-14T07:53:54.419Z,23.23
2018-06-14T07:56:25.954Z,23.57
2018-06-14T07:58:58.280Z,32.50
2018-06-14T08:01:30.280Z,29.80
2018-06-14T08:04:02.266Z,30.90
2018-06-14T08:06:33.814Z,26.13
2018-06-14T08:09:06.093Z,28.23
2018-06-14T08:11:37.837Z,26.67
2018-06-14T08:14:09.879Z,23.47
2018-06-14T08:16:41.379Z,25.67
2018-06-14T08:19:13.120Z,32.83
2018-06-14T08:21:44.618Z,26.60
2018-06-14T08:24:18.296Z,25.03
2018-06-14T08:26:49.649Z,28.10
2018-06-14T08:29:22.393Z,30.40
2018-06-14T08:31:53.943Z,33.43
2018-06-14T08:34:25.839Z,32.93
2018-06-14T08:36:57.628Z,22.40
2018-06-14T08:39:29.761Z,29.47
2018-06-14T08:42:01.277Z,30.70
2018-06-14T08:44:35.085Z,22.60
2018-06-14T08:47:06.793Z,27.10
2018-06-14T08:49:39.016Z,31.43
2018-06-14T08:52:10.600Z,25.67
2018-06-14T08:54:42.035Z,24.63
2018-06-14T08:57:13.529Z,27.03
2018-06-14T08:59:46.575Z,32.83
2018-06-14T09:02:18.678Z,30.23
2018-06-14T09:04:50.870Z,27.70
2018-06-14T09:07:21.870Z,27.43
2018-06-14T09:09:52.838Z,29.07
2018-06-14T09:12:24.843Z,27.13
2018-06-14T09:14:57.803Z,35.23
2018-06-14T09:17:29.620Z,20.70
2018-06-14T09:20:01.756Z,27.90
2018-06-14T09:22:33.538Z,32.60
2018-06-14T09:25:05.639Z,43.27
2018-06-14T09:27:37.554Z,29.37
2018-06-14T09:30:09.669Z,26.67
2018-06-14T09:32:41.591Z,33.83
2018-06-14T09:35:13.621Z,25.20
2018-06-14T09:37:45.262Z,28.00
2018-06-14T09:40:17.621Z,20.83
2018-06-14T09:42:49.310Z,23.10
2018-06-14T09:45:22.623Z,27.53
2018-06-14T09:47:54.259Z,26.50
2018-06-14T09:50:26.194Z,32.50
2018-06-14T09:52:58.029Z,28.67
2018-06-14T09:55:30.513Z,23.17
2018-06-14T09:58:02.377Z,23.00
2018-06-14T10:00:34.535Z,26.43
2018-06-14T10:03:06.581Z,29.30
2018-06-14T10:05:38.462Z,29.73
2018-06-14T10:08:09.681Z,40.13
2018-06-14T10:10:40.886Z,27.90
2018-06-14T10:13:13.449Z,27.53
2018-06-14T10:15:45.469Z,31.83
2018-06-14T10:18:17.474Z,27.87
2018-06-14T10:20:49.380Z,19.00
2018-06-14T10:23:21.077Z,26.20
2018-06-14T10:25:53.513Z,24.37
2018-06-14T10:28:26.143Z,21.83
2018-06-14T10:30:58.052Z,27.83
2018-06-14T10:33:29.766Z,21.63
2018-06-14T10:36:02.100Z,25.43
2018-06-14T10:38:34.767Z,30.83
2018-06-14T10:41:07.212Z,26.87
2018-06-14T10:43:39.116Z,25.47
2018-06-14T10:46:11.168Z,28.63
2018-06-14T10:48:43.170Z,27.37
2018-06-14T10:51:15.584Z,24.47
2018-06-14T10:53:47.656Z,27.30
2018-06-14T10:56:19.703Z,23.70
2018-06-14T10:58:51.514Z,24.23
2018-06-14T11:01:23.628Z,18.17
2018-06-14T11:03:55.306Z,19.87
2018-06-14T11:06:27.550Z,26.70
2018-06-14T11:08:59.243Z,19.10
2018-06-14T11:11:31.253Z,25.50
2018-06-14T11:14:03.213Z,26.87
2018-06-14T11:16:37.589Z,24.97
2018-06-14T11:19:09.034Z,22.80
2018-06-14T11:28:08.371Z,17.77
2018-06-14T11:30:54.917Z,29.90
2018-06-14T11:33:26.535Z,30.47
2018-06-14T11:35:59.269Z,24.20
2018-06-14T11:38:30.758Z,21.70
2018-06-14T11:43:59.622Z,32.07
2018-06-14T11:46:31.452Z,24.83
2018-06-14T11:49:03.112Z,22.23
2018-06-14T11:51:35.385Z,18.33
2018-06-14T11:54:07.302Z,21.47
2018-06-14T11:56:39.506Z,24.90
2018-06-14T11:59:11.277Z,19.13
2018-06-14T12:01:42.985Z,23.40
2018-06-14T12:04:14.443Z,22.80
2018-06-14T12:06:46.579Z,20.50
2018-06-14T12:09:19.317Z,33.00
2018-06-14T12:11:51.977Z,26.87
2018-06-14T12:14:23.105Z,22.43
2018-06-14T12:16:54.870Z,33.60
2018-06-14T12:19:26.463Z,29.40
2018-06-14T12:21:58.192Z,21.70
2018-06-14T12:24:29.820Z,25.57
2018-06-14T12:27:03.128Z,23.60
2018-06-14T12:29:34.590Z,33.03
2018-06-14T12:32:06.536Z,21.00
2018-06-14T12:34:38.184Z,21.03
2018-06-14T12:37:09.841Z,22.07
2018-06-14T12:39:41.434Z,26.93
2018-06-14T12:42:13.359Z,28.67
2018-06-14T12:44:44.915Z,22.70
2018-06-14T12:47:16.874Z,26.53
2018-06-14T12:49:48.344Z,21.00
2018-06-14T12:52:19.244Z,23.33
2018-06-14T12:54:50.812Z,20.80
2018-06-14T12:57:22.737Z,22.60
2018-06-14T12:59:54.432Z,20.20
2018-06-14T13:02:25.973Z,23.70
2018-06-14T13:04:57.661Z,26.00
2018-06-14T13:07:29.889Z,31.30
2018-06-14T13:10:01.590Z,27.20
2018-06-14T13:12:33.672Z,22.20
2018-06-14T13:15:05.503Z,21.80
2018-06-14T13:17:37.721Z,21.60
2018-06-14T13:20:09.701Z,21.47
2018-06-14T13:22:41.408Z,23.77
2018-06-14T13:25:12.841Z,18.97
2018-06-14T13:27:45.272Z,24.43
2018-06-14T13:30:16.812Z,20.83
2018-06-14T13:32:48.991Z,28.77
2018-06-14T13:35:21.143Z,23.40
2018-06-14T13:37:53.214Z,21.20
2018-06-14T13:40:25.013Z,25.57
2018-06-14T13:42:56.933Z,21.10
2018-06-14T13:45:28.502Z,20.40
2018-06-14T13:47:59.343Z,27.33
2018-06-14T13:50:30.769Z,28.60
2018-06-14T13:53:01.701Z,28.67
2018-06-14T13:55:32.789Z,26.10
2018-06-14T13:58:04.758Z,20.67
2018-06-14T14:00:36.599Z,23.07
2018-06-14T14:03:09.045Z,23.33
2018-06-14T14:05:40.527Z,29.17
2018-06-14T14:08:12.194Z,31.67
2018-06-14T14:10:43.729Z,26.67
2018-06-14T14:13:15.644Z,20.90
2018-06-14T14:15:47.280Z,29.47
2018-06-14T14:18:19.255Z,27.27
2018-06-14T14:20:51.289Z,23.57
2018-06-14T14:23:23.108Z,25.53
2018-06-14T14:25:54.809Z,24.50
2018-06-14T14:28:28.586Z,21.63
2018-06-14T14:31:00.162Z,24.10
2018-06-14T14:33:31.937Z,19.37
2018-06-14T14:36:03.561Z,22.87
2018-06-14T14:38:35.585Z,22.73
2018-06-14T14:41:07.001Z,25.90
2018-06-14T14:43:38.755Z,25.17
2018-06-14T14:46:10.414Z,32.73
2018-06-14T14:48:42.458Z,20.80
2018-06-14T14:51:13.941Z,25.60
2018-06-14T14:53:45.870Z,21.53
2018-06-14T14:56:17.516Z,13.47
2018-06-14T14:58:49.559Z,23.37
2018-06-14T15:01:21.185Z,27.47
2018-06-14T15:03:53.170Z,24.77
2018-06-14T15:06:24.685Z,19.40
2018-06-14T15:08:56.461Z,24.10
2018-06-14T15:11:28.099Z,21.33
2018-06-14T15:14:00.085Z,24.10
2018-06-14T15:16:31.477Z,23.53
2018-06-14T15:19:03.258Z,20.83
2018-06-14T15:21:34.955Z,24.90
2018-06-14T15:24:06.568Z,25.27
2018-06-14T15:26:38.050Z,28.97
2018-06-14T15:29:10.032Z,26.00
2018-06-14T15:31:41.881Z,26.50
2018-06-14T15:34:13.445Z,21.10
2018-06-14T15:36:45.102Z,22.33
2018-06-14T15:39:16.834Z,21.53
2018-06-14T15:41:48.656Z,22.47
2018-06-14T15:44:20.633Z,25.10
2018-06-14T15:46:51.996Z,28.67
2018-06-14T15:49:25.904Z,37.67
2018-06-14T15:51:56.566Z,21.40
2018-06-14T15:54:27.470Z,25.33
2018-06-14T15:56:59.665Z,24.60
2018-06-14T15:59:31.441Z,27.93
2018-06-14T16:02:03.067Z,25.13
2018-06-14T16:04:34.941Z,22.57
2018-06-14T16:07:06.686Z,27.90
2018-06-14T16:09:38.626Z,33.43
2018-06-14T16:12:10.320Z,21.50
2018-06-14T16:14:42.254Z,28.53
2018-06-14T16:17:13.958Z,32.63
2018-06-14T16:19:46.012Z,17.50
2018-06-14T16:22:17.572Z,27.10
2018-06-14T16:24:48.894Z,21.30
2018-06-14T16:27:20.640Z,20.63
2018-06-14T16:29:53.500Z,23.27
2018-06-14T16:32:25.171Z,24.03
2018-06-14T16:34:57.935Z,32.10
2018-06-14T16:37:29.497Z,33.67
2018-06-14T16:40:01.606Z,21.70
2018-06-14T16:42:33.215Z,38.37
2018-06-14T16:45:05.340Z,23.47
2018-06-14T16:47:36.917Z,19.70
2018-06-14T16:50:09.693Z,21.60
2018-06-14T16:52:41.171Z,26.40
2018-06-14T16:55:13.288Z,27.83
2018-06-14T16:57:44.770Z,22.53
2018-06-14T17:00:17.523Z,23.90
2018-06-14T17:02:48.331Z,21.33
2018-06-14T17:05:20.260Z,27.53
2018-06-14T17:07:51.895Z,29.53
2018-06-14T17:10:23.911Z,27.00
2018-06-14T17:12:55.701Z,31.63
2018-06-14T17:15:27.475Z,26.57
2018-06-14T17:17:58.913Z,27.43
2018-06-14T17:20:30.981Z,31.97
2018-06-14T17:23:02.745Z,31.03
2018-06-14T17:25:35.051Z,31.73
2018-06-14T17:28:06.651Z,28.10
2018-06-14T17:30:39.970Z,21.43
2018-06-14T17:33:11.631Z,26.97
2018-06-14T17:35:43.314Z,29.67
2018-06-14T17:38:15.429Z,25.17
2018-06-14T17:40:47.441Z,31.37
2018-06-14T17:43:19.126Z,29.67
2018-06-14T17:45:50.174Z,25.83
2018-06-14T17:48:21.928Z,20.50
2018-06-14T17:50:53.745Z,21.67
2018-06-14T17:53:25.207Z,28.50
2018-06-14T17:55:57.583Z,23.80
2018-06-14T17:58:29.011Z,27.30
2018-06-14T18:01:00.957Z,30.23
2018-06-14T18:03:32.313Z,26.30
2018-06-14T18:06:04.688Z,27.00
2018-06-14T18:08:35.956Z,26.20
2018-06-14T18:11:07.766Z,29.27
2018-06-14T18:13:39.486Z,24.03
2018-06-14T18:16:11.171Z,28.90
2018-06-14T18:18:43.489Z,39.97
2018-06-14T18:21:15.291Z,24.37
2018-06-14T18:23:47.047Z,23.80
2018-06-14T18:26:18.949Z,24.10
2018-06-14T18:28:50.753Z,22.17
2018-06-14T18:31:23.767Z,26.00
2018-06-14T18:33:55.438Z,30.50
2018-06-14T18:36:27.558Z,30.93
2018-06-14T18:38:59.364Z,27.63
2018-06-14T18:41:30.997Z,26.37
2018-06-14T18:44:01.624Z,28.93
2018-06-14T18:46:32.422Z,31.33
2018-06-14T18:49:04.917Z,33.73
2018-06-14T18:51:37.020Z,22.43
2018-06-14T18:54:08.577Z,25.43
2018-06-14T18:56:40.267Z,27.83
2018-06-14T18:59:11.904Z,27.90
2018-06-14T19:01:44.011Z,22.93
2018-06-14T19:04:15.713Z,24.20
2018-06-14T19:06:54.847Z,35.90
2018-06-14T19:09:26.697Z,20.57
2018-06-14T19:11:59.047Z,30.53
2018-06-14T19:14:31.034Z,28.87
2018-06-14T19:17:02.156Z,27.17
2018-06-14T19:19:34.836Z,22.27
2018-06-14T19:22:06.918Z,26.13
2018-06-14T19:24:38.752Z,22.33
2018-06-14T19:27:10.503Z,21.00
2018-06-14T19:29:42.636Z,28.53
2018-06-14T19:32:15.739Z,23.23
2018-06-14T19:34:47.505Z,31.40
2018-06-14T19:37:19.126Z,26.27
2018-06-14T19:39:50.787Z,29.83
2018-06-14T19:42:22.831Z,28.97
2018-06-14T19:44:54.458Z,24.17
2018-06-14T19:47:25.820Z,34.70
2018-06-14T19:49:57.718Z,40.13
2018-06-14T19:52:29.489Z,23.83
2018-06-14T19:55:01.098Z,39.97
2018-06-14T19:57:33.231Z,48.13
2018-06-14T20:00:05.059Z,46.60
2018-06-14T20:02:37.428Z,51.57
2018-06-14T20:05:09.115Z,61.60
2018-06-14T20:07:41.188Z,56.67
2018-06-14T20:10:12.888Z,50.97
2018-06-14T20:12:45.270Z,45.73
2018-06-14T20:15:16.967Z,56.80
2018-06-14T20:17:48.653Z,50.60
2018-06-14T20:20:21.054Z,56.17
2018-06-14T20:22:52.897Z,45.97
2018-06-14T20:25:24.874Z,53.00
2018-06-14T20:27:56.899Z,50.93
2018-06-14T20:30:28.589Z,40.87
2018-06-14T20:33:01.428Z,37.10
2018-06-14T20:35:32.869Z,37.00
2018-06-14T20:38:04.755Z,38.33
2018-06-14T20:40:36.495Z,30.17
2018-06-14T20:43:08.181Z,33.10
2018-06-14T20:45:39.699Z,32.17
2018-06-14T20:48:11.647Z,30.47
2018-06-14T20:50:43.365Z,35.10
2018-06-14T20:53:15.413Z,35.00
2018-06-14T20:55:46.896Z,30.03
2018-06-14T20:58:19.359Z,34.97
2018-06-14T21:00:50.946Z,30.53
2018-06-14T21:03:22.603Z,30.40
2018-06-14T21:05:54.177Z,28.43
2018-06-14T21:08:26.299Z,41.03
2018-06-14T21:10:57.956Z,29.33
2018-06-14T21:13:29.951Z,33.30
2018-06-14T21:16:01.484Z,25.60
2018-06-14T21:18:33.425Z,29.57
2018-06-14T21:21:05.249Z,34.33
2018-06-14T21:23:36.773Z,32.20
2018-06-14T21:26:08.664Z,29.07
2018-06-14T21:28:40.471Z,26.77
2018-06-14T21:31:12.261Z,29.70
2018-06-14T21:33:45.328Z,32.57
2018-06-14T21:36:16.881Z,26.23
2018-06-14T21:38:48.850Z,29.00
2018-06-14T21:41:20.463Z,36.17
2018-06-14T21:43:52.060Z,35.60
2018-06-14T21:46:23.533Z,29.23
2018-06-14T21:48:55.523Z,34.20
2018-06-14T21:51:26.323Z,28.63
2018-06-14T21:53:58.304Z,33.83
2018-06-14T21:56:30.011Z,30.17
2018-06-14T21:59:01.839Z,32.13
2018-06-14T22:01:32.709Z,32.37
2018-06-14T22:04:04.869Z,31.80
2018-06-14T22:06:36.293Z,33.97
2018-06-14T22:09:09.092Z,33.93
2018-06-14T22:11:39.868Z,35.47
2018-06-14T22:14:11.808Z,25.13
2018-06-14T22:16:43.451Z,28.50
2018-06-14T22:19:15.086Z,42.53
2018-06-14T22:21:47.040Z,33.03
2018-06-14T22:24:19.310Z,32.23
2018-06-14T22:26:51.698Z,26.87
2018-06-14T22:29:23.523Z,28.93
2018-06-14T22:31:54.992Z,37.70
2018-06-14T22:34:38.474Z,32.00
2018-06-14T22:37:09.991Z,27.30
2018-06-14T22:39:41.872Z,34.83
2018-06-14T22:42:13.620Z,26.60
2018-06-14T22:44:45.329Z,31.80
2018-06-14T22:47:17.024Z,39.30
2018-06-14T22:49:49.004Z,36.20
2018-06-14T22:52:55.738Z,23.63
2018-06-14T22:55:27.230Z,28.97
2018-06-14T22:57:58.900Z,32.67
2018-06-14T23:01:41.828Z,25.87
2018-06-14T23:04:14.861Z,25.13
2018-06-14T23:06:46.603Z,43.13
2018-06-14T23:10:28.260Z,39.17
2018-06-14T23:13:00.044Z,25.40
2018-06-14T23:15:32.182Z,29.77
2018-06-14T23:18:04.293Z,26.13
2018-06-14T23:20:36.349Z,33.80
2018-06-14T23:23:09.116Z,30.17
2018-06-14T23:25:39.844Z,29.63
2018-06-14T23:28:11.653Z,33.77
2018-06-14T23:30:43.385Z,19.90
2018-06-14T23:33:15.216Z,33.30
2018-06-14T23:35:47.852Z,28.43
2018-06-14T23:38:19.545Z,34.47
2018-06-14T23:40:51.068Z,31.77
2018-06-14T23:43:22.917Z,31.23
2018-06-14T23:45:54.336Z,33.97
2018-06-14T23:48:25.992Z,27.40
2018-06-14T23:50:56.610Z,33.37
2018-06-14T23:53:28.762Z,33.43
2018-06-14T23:56:00.343Z,23.20
2018-06-14T23:58:31.505Z,39.53
